sensor_id;sensor_type;location;lat;lon;timestamp;P1;durP1;ratioP1;P2;durP2;ratioP2
24084;SDS011;12268;52.110;5.548;2023-08-07T00:37:07;12.13;;;2.58;;
24084;SDS011;12268;52.110;5.548;2023-08-07T00:39:32;10.38;;;2.92;;
24084;SDS011;12268;52.110;5.548;2023-08-07T00:41:58;12.75;;;2.33;;
24084;SDS011;12268;52.110;5.548;2023-08-07T00:44:23;7.30;;;2.60;;
24084;SDS011;12268;52.110;5.548;2023-08-07T00:46:49;9.90;;;2.72;;
24084;SDS011;12268;52.110;5.548;2023-08-07T00:49:14;9.32;;;2.75;;
24084;SDS011;12268;52.110;5.548;2023-08-07T00:51:43;15.13;;;3.53;;
24084;SDS011;12268;52.110;5.548;2023-08-07T00:54:09;8.68;;;2.72;;
24084;SDS011;12268;52.110;5.548;2023-08-07T00:56:36;12.20;;;3.13;;
24084;SDS011;12268;52.110;5.548;2023-08-07T00:59:02;14.07;;;3.20;;
24084;SDS011;12268;52.110;5.548;2023-08-07T01:01:28;14.32;;;3.00;;
24084;SDS011;12268;52.110;5.548;2023-08-07T01:03:54;14.50;;;3.22;;
24084;SDS011;12268;52.110;5.548;2023-08-07T01:06:19;12.43;;;2.63;;
24084;SDS011;12268;52.110;5.548;2023-08-07T01:08:45;15.02;;;3.00;;
24084;SDS011;12268;52.110;5.548;2023-08-07T01:11:18;16.60;;;3.65;;
24084;SDS011;12268;52.110;5.548;2023-08-07T01:17:15;14.05;;;3.85;;
24084;SDS011;12268;52.110;5.548;2023-08-07T01:19:23;20.50;;;4.05;;
24084;SDS011;12268;52.110;5.548;2023-08-07T01:22:03;19.38;;;3.97;;
24084;SDS011;12268;52.110;5.548;2023-08-07T01:24:40;16.20;;;3.78;;
24084;SDS011;12268;52.110;5.548;2023-08-07T01:32:13;14.18;;;4.20;;
24084;SDS011;12268;52.110;5.548;2023-08-07T01:37:10;16.25;;;3.80;;
24084;SDS011;12268;52.110;5.548;2023-08-07T01:39:38;15.75;;;4.25;;
24084;SDS011;12268;52.110;5.548;2023-08-07T01:42:05;22.92;;;4.28;;
24084;SDS011;12268;52.110;5.548;2023-08-07T01:44:32;15.23;;;3.78;;
24084;SDS011;12268;52.110;5.548;2023-08-07T01:46:57;17.17;;;4.40;;
24084;SDS011;12268;52.110;5.548;2023-08-07T01:49:23;11.73;;;4.13;;
24084;SDS011;12268;52.110;5.548;2023-08-07T01:51:48;14.00;;;4.03;;
24084;SDS011;12268;52.110;5.548;2023-08-07T01:54:14;11.35;;;3.45;;
24084;SDS011;12268;52.110;5.548;2023-08-07T01:56:39;12.40;;;4.03;;
24084;SDS011;12268;52.110;5.548;2023-08-07T01:59:05;16.40;;;4.20;;
24084;SDS011;12268;52.110;5.548;2023-08-07T02:01:30;18.52;;;4.28;;
24084;SDS011;12268;52.110;5.548;2023-08-07T02:03:56;20.33;;;4.22;;
24084;SDS011;12268;52.110;5.548;2023-08-07T02:06:21;19.00;;;3.90;;
24084;SDS011;12268;52.110;5.548;2023-08-07T02:08:47;15.02;;;4.35;;
24084;SDS011;12268;52.110;5.548;2023-08-07T02:11:12;16.15;;;3.83;;
24084;SDS011;12268;52.110;5.548;2023-08-07T02:13:38;17.60;;;4.32;;
24084;SDS011;12268;52.110;5.548;2023-08-07T02:16:03;18.70;;;4.13;;
24084;SDS011;12268;52.110;5.548;2023-08-07T02:18:29;19.05;;;3.92;;
24084;SDS011;12268;52.110;5.548;2023-08-07T02:20:55;14.35;;;4.35;;
24084;SDS011;12268;52.110;5.548;2023-08-07T02:23:20;17.42;;;4.07;;
24084;SDS011;12268;52.110;5.548;2023-08-07T02:25:46;13.40;;;4.43;;
24084;SDS011;12268;52.110;5.548;2023-08-07T02:28:11;16.83;;;4.40;;
24084;SDS011;12268;52.110;5.548;2023-08-07T02:30:37;14.80;;;4.43;;
24084;SDS011;12268;52.110;5.548;2023-08-07T02:33:02;17.30;;;4.45;;
24084;SDS011;12268;52.110;5.548;2023-08-07T02:35:28;16.35;;;4.25;;
24084;SDS011;12268;52.110;5.548;2023-08-07T02:37:53;23.95;;;4.70;;
24084;SDS011;12268;52.110;5.548;2023-08-07T02:40:19;18.30;;;4.60;;
24084;SDS011;12268;52.110;5.548;2023-08-07T02:42:44;20.77;;;4.90;;
24084;SDS011;12268;52.110;5.548;2023-08-07T02:45:10;18.20;;;4.28;;
24084;SDS011;12268;52.110;5.548;2023-08-07T02:47:35;17.95;;;4.47;;
24084;SDS011;12268;52.110;5.548;2023-08-07T02:50:01;15.27;;;4.22;;
24084;SDS011;12268;52.110;5.548;2023-08-07T02:52:26;13.52;;;4.63;;
24084;SDS011;12268;52.110;5.548;2023-08-07T02:54:52;17.38;;;4.22;;
24084;SDS011;12268;52.110;5.548;2023-08-07T02:57:18;18.08;;;4.57;;
24084;SDS011;12268;52.110;5.548;2023-08-07T02:59:44;22.73;;;4.90;;
24084;SDS011;12268;52.110;5.548;2023-08-07T03:02:09;13.98;;;4.00;;
24084;SDS011;12268;52.110;5.548;2023-08-07T03:04:35;23.48;;;4.90;;
24084;SDS011;12268;52.110;5.548;2023-08-07T03:07:00;17.63;;;4.35;;
24084;SDS011;12268;52.110;5.548;2023-08-07T03:09:26;17.65;;;4.72;;
24084;SDS011;12268;52.110;5.548;2023-08-07T03:11:51;16.45;;;3.97;;
24084;SDS011;12268;52.110;5.548;2023-08-07T03:14:17;14.77;;;4.03;;
24084;SDS011;12268;52.110;5.548;2023-08-07T03:16:42;12.98;;;4.30;;
24084;SDS011;12268;52.110;5.548;2023-08-07T03:19:09;14.07;;;4.85;;
24084;SDS011;12268;52.110;5.548;2023-08-07T03:21:35;20.38;;;4.18;;
24084;SDS011;12268;52.110;5.548;2023-08-07T03:24:00;12.13;;;3.75;;
24084;SDS011;12268;52.110;5.548;2023-08-07T03:26:26;15.02;;;4.07;;
24084;SDS011;12268;52.110;5.548;2023-08-07T03:28:51;20.58;;;5.07;;
24084;SDS011;12268;52.110;5.548;2023-08-07T03:31:17;11.90;;;3.72;;
24084;SDS011;12268;52.110;5.548;2023-08-07T03:33:42;11.02;;;3.50;;
24084;SDS011;12268;52.110;5.548;2023-08-07T03:36:08;11.38;;;3.80;;
24084;SDS011;12268;52.110;5.548;2023-08-07T03:38:34;12.27;;;3.45;;
24084;SDS011;12268;52.110;5.548;2023-08-07T03:40:59;11.80;;;3.42;;
24084;SDS011;12268;52.110;5.548;2023-08-07T03:43:25;11.25;;;2.92;;
24084;SDS011;12268;52.110;5.548;2023-08-07T03:45:57;7.78;;;2.40;;
24084;SDS011;12268;52.110;5.548;2023-08-07T03:48:23;10.68;;;2.70;;
24084;SDS011;12268;52.110;5.548;2023-08-07T03:50:48;9.93;;;2.70;;
24084;SDS011;12268;52.110;5.548;2023-08-07T03:53:14;10.57;;;2.80;;
24084;SDS011;12268;52.110;5.548;2023-08-07T03:55:39;10.48;;;3.10;;
24084;SDS011;12268;52.110;5.548;2023-08-07T03:58:06;16.20;;;3.40;;
24084;SDS011;12268;52.110;5.548;2023-08-07T04:00:32;13.15;;;2.83;;
24084;SDS011;12268;52.110;5.548;2023-08-07T04:02:58;10.63;;;3.40;;
24084;SDS011;12268;52.110;5.548;2023-08-07T04:05:23;10.25;;;3.30;;
24084;SDS011;12268;52.110;5.548;2023-08-07T04:07:49;16.33;;;3.63;;
24084;SDS011;12268;52.110;5.548;2023-08-07T04:10:15;13.93;;;3.55;;
24084;SDS011;12268;52.110;5.548;2023-08-07T04:12:40;13.38;;;3.40;;
24084;SDS011;12268;52.110;5.548;2023-08-07T04:15:06;15.57;;;3.72;;
24084;SDS011;12268;52.110;5.548;2023-08-07T04:17:32;13.57;;;3.17;;
24084;SDS011;12268;52.110;5.548;2023-08-07T04:19:57;13.13;;;3.85;;
24084;SDS011;12268;52.110;5.548;2023-08-07T04:22:23;21.10;;;3.83;;
24084;SDS011;12268;52.110;5.548;2023-08-07T04:24:48;10.48;;;3.63;;
24084;SDS011;12268;52.110;5.548;2023-08-07T04:27:14;12.57;;;4.25;;
24084;SDS011;12268;52.110;5.548;2023-08-07T04:29:39;12.80;;;3.97;;
24084;SDS011;12268;52.110;5.548;2023-08-07T04:32:05;13.95;;;3.42;;
24084;SDS011;12268;52.110;5.548;2023-08-07T04:34:31;12.23;;;3.50;;
24084;SDS011;12268;52.110;5.548;2023-08-07T04:36:57;12.40;;;3.65;;
24084;SDS011;12268;52.110;5.548;2023-08-07T04:39:22;14.52;;;4.05;;
24084;SDS011;12268;52.110;5.548;2023-08-07T04:41:48;22.15;;;4.40;;
24084;SDS011;12268;52.110;5.548;2023-08-07T04:44:16;15.88;;;4.30;;
24084;SDS011;12268;52.110;5.548;2023-08-07T04:46:42;16.20;;;4.18;;
24084;SDS011;12268;52.110;5.548;2023-08-07T04:49:07;15.35;;;3.80;;
24084;SDS011;12268;52.110;5.548;2023-08-07T04:51:33;18.92;;;4.65;;
24084;SDS011;12268;52.110;5.548;2023-08-07T04:53:58;20.70;;;4.35;;
24084;SDS011;12268;52.110;5.548;2023-08-07T04:56:24;18.30;;;4.30;;
24084;SDS011;12268;52.110;5.548;2023-08-07T04:58:49;16.13;;;4.80;;
24084;SDS011;12268;52.110;5.548;2023-08-07T05:01:15;18.27;;;4.43;;
24084;SDS011;12268;52.110;5.548;2023-08-07T05:03:40;16.77;;;4.75;;
24084;SDS011;12268;52.110;5.548;2023-08-07T05:06:06;12.50;;;4.07;;
24084;SDS011;12268;52.110;5.548;2023-08-07T05:08:31;18.67;;;4.53;;
24084;SDS011;12268;52.110;5.548;2023-08-07T05:10:57;23.85;;;4.60;;
24084;SDS011;12268;52.110;5.548;2023-08-07T05:13:22;19.13;;;4.03;;
24084;SDS011;12268;52.110;5.548;2023-08-07T05:15:48;14.63;;;3.95;;
24084;SDS011;12268;52.110;5.548;2023-08-07T05:18:14;12.13;;;4.32;;
24084;SDS011;12268;52.110;5.548;2023-08-07T05:20:40;20.00;;;4.88;;
24084;SDS011;12268;52.110;5.548;2023-08-07T05:23:06;19.67;;;4.82;;
24084;SDS011;12268;52.110;5.548;2023-08-07T05:25:31;15.20;;;4.05;;
24084;SDS011;12268;52.110;5.548;2023-08-07T05:27:57;18.40;;;4.60;;
24084;SDS011;12268;52.110;5.548;2023-08-07T05:30:23;13.18;;;3.83;;
24084;SDS011;12268;52.110;5.548;2023-08-07T05:32:48;15.65;;;4.28;;
24084;SDS011;12268;52.110;5.548;2023-08-07T05:35:14;13.75;;;4.18;;
24084;SDS011;12268;52.110;5.548;2023-08-07T05:37:39;14.13;;;4.43;;
24084;SDS011;12268;52.110;5.548;2023-08-07T05:40:05;16.75;;;4.18;;
24084;SDS011;12268;52.110;5.548;2023-08-07T05:42:31;11.07;;;3.92;;
24084;SDS011;12268;52.110;5.548;2023-08-07T05:44:58;15.75;;;3.90;;
24084;SDS011;12268;52.110;5.548;2023-08-07T05:47:24;13.07;;;4.22;;
24084;SDS011;12268;52.110;5.548;2023-08-07T05:49:49;19.15;;;4.55;;
24084;SDS011;12268;52.110;5.548;2023-08-07T05:52:16;16.98;;;4.00;;
24084;SDS011;12268;52.110;5.548;2023-08-07T05:54:42;16.25;;;4.50;;
24084;SDS011;12268;52.110;5.548;2023-08-07T05:57:08;13.85;;;4.15;;
24084;SDS011;12268;52.110;5.548;2023-08-07T05:59:34;15.85;;;4.47;;
24084;SDS011;12268;52.110;5.548;2023-08-07T06:02:00;16.08;;;4.75;;
24084;SDS011;12268;52.110;5.548;2023-08-07T06:04:27;15.18;;;4.10;;
24084;SDS011;12268;52.110;5.548;2023-08-07T06:06:52;14.85;;;3.90;;
24084;SDS011;12268;52.110;5.548;2023-08-07T06:09:18;18.00;;;4.60;;
24084;SDS011;12268;52.110;5.548;2023-08-07T06:11:43;16.48;;;4.20;;
24084;SDS011;12268;52.110;5.548;2023-08-07T06:14:09;19.48;;;4.78;;
24084;SDS011;12268;52.110;5.548;2023-08-07T06:16:35;11.80;;;4.38;;
24084;SDS011;12268;52.110;5.548;2023-08-07T06:19:01;13.18;;;3.97;;
24084;SDS011;12268;52.110;5.548;2023-08-07T06:21:28;17.92;;;4.22;;
24084;SDS011;12268;52.110;5.548;2023-08-07T06:23:53;14.02;;;4.43;;
24084;SDS011;12268;52.110;5.548;2023-08-07T06:26:19;12.23;;;4.30;;
24084;SDS011;12268;52.110;5.548;2023-08-07T06:28:45;11.95;;;4.03;;
24084;SDS011;12268;52.110;5.548;2023-08-07T06:31:11;13.35;;;4.03;;
24084;SDS011;12268;52.110;5.548;2023-08-07T06:33:37;17.63;;;4.50;;
24084;SDS011;12268;52.110;5.548;2023-08-07T06:36:04;15.10;;;4.53;;
24084;SDS011;12268;52.110;5.548;2023-08-07T06:38:31;12.27;;;3.97;;
24084;SDS011;12268;52.110;5.548;2023-08-07T06:40:57;15.43;;;3.80;;
24084;SDS011;12268;52.110;5.548;2023-08-07T06:43:22;15.05;;;4.40;;
24084;SDS011;12268;52.110;5.548;2023-08-07T06:45:51;15.15;;;4.13;;
24084;SDS011;12268;52.110;5.548;2023-08-07T06:48:18;12.90;;;4.05;;
24084;SDS011;12268;52.110;5.548;2023-08-07T06:50:44;15.63;;;4.35;;
24084;SDS011;12268;52.110;5.548;2023-08-07T06:53:11;12.30;;;3.88;;
24084;SDS011;12268;52.110;5.548;2023-08-07T06:55:36;12.45;;;4.18;;
24084;SDS011;12268;52.110;5.548;2023-08-07T06:58:02;14.77;;;4.05;;
24084;SDS011;12268;52.110;5.548;2023-08-07T08:10:22;12.23;;;3.40;;
24084;SDS011;12268;52.110;5.548;2023-08-07T08:12:48;15.50;;;3.55;;
24084;SDS011;12268;52.110;5.548;2023-08-07T08:15:13;13.52;;;3.50;;
24084;SDS011;12268;52.110;5.548;2023-08-07T08:17:39;11.80;;;3.42;;
24084;SDS011;12268;52.110;5.548;2023-08-07T08:20:05;12.05;;;3.67;;
24084;SDS011;12268;52.110;5.548;2023-08-07T08:22:31;16.83;;;4.47;;
24084;SDS011;12268;52.110;5.548;2023-08-07T08:24:58;16.52;;;4.63;;
24084;SDS011;12268;52.110;5.548;2023-08-07T08:27:23;15.90;;;4.40;;
24084;SDS011;12268;52.110;5.548;2023-08-07T08:29:50;18.13;;;5.20;;
24084;SDS011;12268;52.110;5.548;2023-08-07T08:32:15;17.60;;;5.10;;
24084;SDS011;12268;52.110;5.548;2023-08-07T08:34:41;16.77;;;4.60;;
24084;SDS011;12268;52.110;5.548;2023-08-07T08:37:06;15.00;;;4.65;;
24084;SDS011;12268;52.110;5.548;2023-08-07T08:39:32;17.17;;;4.25;;
24084;SDS011;12268;52.110;5.548;2023-08-07T08:41:58;19.65;;;5.07;;
24084;SDS011;12268;52.110;5.548;2023-08-07T08:44:24;19.42;;;4.47;;
24084;SDS011;12268;52.110;5.548;2023-08-07T08:46:54;16.05;;;3.80;;
24084;SDS011;12268;52.110;5.548;2023-08-07T08:49:26;15.02;;;4.38;;
24084;SDS011;12268;52.110;5.548;2023-08-07T08:51:56;16.05;;;4.20;;
24084;SDS011;12268;52.110;5.548;2023-08-07T08:54:21;17.17;;;4.00;;
24084;SDS011;12268;52.110;5.548;2023-08-07T08:56:48;13.15;;;3.78;;
24084;SDS011;12268;52.110;5.548;2023-08-07T08:59:14;19.60;;;4.30;;
24084;SDS011;12268;52.110;5.548;2023-08-07T09:01:43;15.52;;;3.78;;
24084;SDS011;12268;52.110;5.548;2023-08-07T09:04:09;12.32;;;3.80;;
24084;SDS011;12268;52.110;5.548;2023-08-07T09:06:35;15.07;;;3.72;;
24084;SDS011;12268;52.110;5.548;2023-08-07T09:09:01;12.95;;;3.72;;
24084;SDS011;12268;52.110;5.548;2023-08-07T09:11:28;13.60;;;3.60;;
24084;SDS011;12268;52.110;5.548;2023-08-07T09:13:55;13.57;;;3.85;;
24084;SDS011;12268;52.110;5.548;2023-08-07T09:16:22;10.70;;;3.50;;
24084;SDS011;12268;52.110;5.548;2023-08-07T09:18:50;10.63;;;3.42;;
24084;SDS011;12268;52.110;5.548;2023-08-07T09:21:16;12.88;;;4.07;;
24084;SDS011;12268;52.110;5.548;2023-08-07T09:23:43;15.68;;;3.50;;
24084;SDS011;12268;52.110;5.548;2023-08-07T09:26:09;12.98;;;3.03;;
24084;SDS011;12268;52.110;5.548;2023-08-07T09:28:36;13.80;;;3.78;;
24084;SDS011;12268;52.110;5.548;2023-08-07T09:31:01;13.18;;;3.13;;
24084;SDS011;12268;52.110;5.548;2023-08-07T09:33:27;11.55;;;2.90;;
24084;SDS011;12268;52.110;5.548;2023-08-07T09:35:57;10.52;;;3.13;;
24084;SDS011;12268;52.110;5.548;2023-08-07T09:38:24;9.70;;;2.72;;
24084;SDS011;12268;52.110;5.548;2023-08-07T09:40:53;10.88;;;2.95;;
24084;SDS011;12268;52.110;5.548;2023-08-07T09:43:23;10.55;;;3.70;;
24084;SDS011;12268;52.110;5.548;2023-08-07T09:45:48;12.18;;;3.67;;
24084;SDS011;12268;52.110;5.548;2023-08-07T09:48:22;12.95;;;3.28;;
24084;SDS011;12268;52.110;5.548;2023-08-07T09:50:49;13.95;;;3.10;;
24084;SDS011;12268;52.110;5.548;2023-08-07T09:53:15;12.65;;;3.55;;
24084;SDS011;12268;52.110;5.548;2023-08-07T09:55:41;6.53;;;2.40;;
24084;SDS011;12268;52.110;5.548;2023-08-07T09:58:07;10.65;;;3.22;;
24084;SDS011;12268;52.110;5.548;2023-08-07T10:00:36;10.48;;;3.00;;
24084;SDS011;12268;52.110;5.548;2023-08-07T10:03:02;11.07;;;3.10;;
24084;SDS011;12268;52.110;5.548;2023-08-07T10:05:29;10.45;;;2.90;;
24084;SDS011;12268;52.110;5.548;2023-08-07T10:07:55;13.98;;;3.33;;
24084;SDS011;12268;52.110;5.548;2023-08-07T10:10:22;19.83;;;4.53;;
24084;SDS011;12268;52.110;5.548;2023-08-07T10:12:50;11.50;;;3.42;;
24084;SDS011;12268;52.110;5.548;2023-08-07T10:15:16;11.77;;;3.28;;
24084;SDS011;12268;52.110;5.548;2023-08-07T10:17:43;10.23;;;3.20;;
24084;SDS011;12268;52.110;5.548;2023-08-07T10:20:09;11.57;;;3.45;;
24084;SDS011;12268;52.110;5.548;2023-08-07T10:22:35;11.07;;;3.50;;
24084;SDS011;12268;52.110;5.548;2023-08-07T10:25:03;11.02;;;3.13;;
24084;SDS011;12268;52.110;5.548;2023-08-07T10:27:31;11.07;;;3.25;;
24084;SDS011;12268;52.110;5.548;2023-08-07T10:29:59;11.05;;;3.17;;
24084;SDS011;12268;52.110;5.548;2023-08-07T10:32:28;7.40;;;3.05;;
24084;SDS011;12268;52.110;5.548;2023-08-07T10:34:54;7.88;;;2.70;;
24084;SDS011;12268;52.110;5.548;2023-08-07T10:40:06;8.45;;;2.40;;
24084;SDS011;12268;52.110;5.548;2023-08-07T10:45:20;10.35;;;2.67;;
24084;SDS011;12268;52.110;5.548;2023-08-07T10:48:05;11.70;;;2.70;;
24084;SDS011;12268;52.110;5.548;2023-08-07T10:50:33;8.15;;;2.60;;
24084;SDS011;12268;52.110;5.548;2023-08-07T10:53:01;9.23;;;2.63;;
24084;SDS011;12268;52.110;5.548;2023-08-07T10:55:30;8.95;;;2.63;;
24084;SDS011;12268;52.110;5.548;2023-08-07T10:58:22;11.15;;;2.70;;
24084;SDS011;12268;52.110;5.548;2023-08-07T11:00:51;10.60;;;2.95;;
24084;SDS011;12268;52.110;5.548;2023-08-07T11:03:25;8.65;;;2.85;;
24084;SDS011;12268;52.110;5.548;2023-08-07T11:05:52;9.60;;;3.08;;
24084;SDS011;12268;52.110;5.548;2023-08-07T11:08:21;15.48;;;3.85;;
24084;SDS011;12268;52.110;5.548;2023-08-07T11:10:48;13.55;;;3.10;;
24084;SDS011;12268;52.110;5.548;2023-08-07T11:13:16;10.57;;;2.90;;
24084;SDS011;12268;52.110;5.548;2023-08-07T11:15:41;12.25;;;3.47;;
24084;SDS011;12268;52.110;5.548;2023-08-07T11:18:07;9.10;;;3.10;;
24084;SDS011;12268;52.110;5.548;2023-08-07T11:20:33;9.68;;;3.25;;
24084;SDS011;12268;52.110;5.548;2023-08-07T11:23:00;10.48;;;3.13;;
24084;SDS011;12268;52.110;5.548;2023-08-07T11:25:26;8.75;;;2.70;;
24084;SDS011;12268;52.110;5.548;2023-08-07T11:27:51;9.32;;;2.80;;
24084;SDS011;12268;52.110;5.548;2023-08-07T11:30:18;8.10;;;3.25;;
24084;SDS011;12268;52.110;5.548;2023-08-07T11:32:44;7.82;;;2.60;;
24084;SDS011;12268;52.110;5.548;2023-08-07T11:35:10;10.10;;;2.78;;
24084;SDS011;12268;52.110;5.548;2023-08-07T11:37:36;8.73;;;2.35;;
24084;SDS011;12268;52.110;5.548;2023-08-07T11:40:10;8.45;;;2.63;;
24084;SDS011;12268;52.110;5.548;2023-08-07T11:42:36;10.77;;;3.10;;
24084;SDS011;12268;52.110;5.548;2023-08-07T11:45:03;8.45;;;2.78;;
24084;SDS011;12268;52.110;5.548;2023-08-07T11:47:29;8.35;;;2.38;;
24084;SDS011;12268;52.110;5.548;2023-08-07T11:49:55;6.90;;;2.60;;
24084;SDS011;12268;52.110;5.548;2023-08-07T11:52:20;11.40;;;2.83;;
24084;SDS011;12268;52.110;5.548;2023-08-07T11:54:48;11.40;;;2.90;;
24084;SDS011;12268;52.110;5.548;2023-08-07T11:57:17;10.10;;;2.72;;
24084;SDS011;12268;52.110;5.548;2023-08-07T11:59:54;10.80;;;3.03;;
24084;SDS011;12268;52.110;5.548;2023-08-07T12:02:25;10.48;;;3.20;;
24084;SDS011;12268;52.110;5.548;2023-08-07T12:04:52;13.80;;;3.00;;
24084;SDS011;12268;52.110;5.548;2023-08-07T12:07:24;11.35;;;2.85;;
24084;SDS011;12268;52.110;5.548;2023-08-07T12:09:51;11.07;;;2.70;;
24084;SDS011;12268;52.110;5.548;2023-08-07T12:12:19;8.75;;;2.90;;
24084;SDS011;12268;52.110;5.548;2023-08-07T12:14:44;10.07;;;2.88;;
24084;SDS011;12268;52.110;5.548;2023-08-07T12:17:10;8.43;;;2.95;;
24084;SDS011;12268;52.110;5.548;2023-08-07T12:19:38;8.15;;;2.95;;
24084;SDS011;12268;52.110;5.548;2023-08-07T12:22:09;7.60;;;3.15;;
24084;SDS011;12268;52.110;5.548;2023-08-07T12:24:36;5.88;;;2.40;;
24084;SDS011;12268;52.110;5.548;2023-08-07T12:27:04;5.90;;;2.30;;
24084;SDS011;12268;52.110;5.548;2023-08-07T12:29:30;9.50;;;2.70;;
24084;SDS011;12268;52.110;5.548;2023-08-07T12:31:56;8.95;;;2.70;;
24084;SDS011;12268;52.110;5.548;2023-08-07T12:34:23;11.18;;;2.72;;
24084;SDS011;12268;52.110;5.548;2023-08-07T12:36:49;8.38;;;2.50;;
24084;SDS011;12268;52.110;5.548;2023-08-07T12:39:15;10.52;;;2.40;;
24084;SDS011;12268;52.110;5.548;2023-08-07T12:41:40;7.07;;;2.35;;
24084;SDS011;12268;52.110;5.548;2023-08-07T12:44:06;8.63;;;2.60;;
24084;SDS011;12268;52.110;5.548;2023-08-07T12:46:31;7.22;;;2.40;;
24084;SDS011;12268;52.110;5.548;2023-08-07T12:48:57;5.32;;;2.40;;
24084;SDS011;12268;52.110;5.548;2023-08-07T12:51:22;8.15;;;2.42;;
24084;SDS011;12268;52.110;5.548;2023-08-07T12:53:48;7.78;;;2.05;;
24084;SDS011;12268;52.110;5.548;2023-08-07T12:56:13;8.27;;;2.30;;
24084;SDS011;12268;52.110;5.548;2023-08-07T12:58:39;10.15;;;2.35;;
24084;SDS011;12268;52.110;5.548;2023-08-07T13:01:04;6.95;;;2.45;;
24084;SDS011;12268;52.110;5.548;2023-08-07T13:03:30;6.60;;;2.10;;
24084;SDS011;12268;52.110;5.548;2023-08-07T13:05:56;9.52;;;2.70;;
24084;SDS011;12268;52.110;5.548;2023-08-07T13:08:22;6.63;;;2.22;;
24084;SDS011;12268;52.110;5.548;2023-08-07T13:10:47;8.00;;;2.20;;
24084;SDS011;12268;52.110;5.548;2023-08-07T13:13:13;3.40;;;1.85;;
24084;SDS011;12268;52.110;5.548;2023-08-07T13:15:38;4.90;;;2.08;;
24084;SDS011;12268;52.110;5.548;2023-08-07T13:18:04;4.78;;;1.83;;
24084;SDS011;12268;52.110;5.548;2023-08-07T13:20:29;9.98;;;2.25;;
24084;SDS011;12268;52.110;5.548;2023-08-07T13:22:58;6.22;;;2.47;;
24084;SDS011;12268;52.110;5.548;2023-08-07T13:25:25;7.20;;;2.63;;
24084;SDS011;12268;52.110;5.548;2023-08-07T13:27:51;4.35;;;1.85;;
24084;SDS011;12268;52.110;5.548;2023-08-07T13:30:16;6.72;;;2.35;;
24084;SDS011;12268;52.110;5.548;2023-08-07T13:32:42;5.20;;;2.53;;
24084;SDS011;12268;52.110;5.548;2023-08-07T13:35:07;7.05;;;2.08;;
24084;SDS011;12268;52.110;5.548;2023-08-07T13:37:34;7.45;;;2.58;;
24084;SDS011;12268;52.110;5.548;2023-08-07T13:39:59;5.72;;;2.22;;
24084;SDS011;12268;52.110;5.548;2023-08-07T13:42:25;5.70;;;2.03;;
24084;SDS011;12268;52.110;5.548;2023-08-07T13:44:52;6.50;;;2.28;;
24084;SDS011;12268;52.110;5.548;2023-08-07T13:47:18;5.70;;;1.95;;
24084;SDS011;12268;52.110;5.548;2023-08-07T13:49:45;5.65;;;1.90;;
24084;SDS011;12268;52.110;5.548;2023-08-07T13:52:11;4.47;;;1.95;;
24084;SDS011;12268;52.110;5.548;2023-08-07T13:54:36;6.80;;;2.03;;
24084;SDS011;12268;52.110;5.548;2023-08-07T13:57:02;5.65;;;1.80;;
24084;SDS011;12268;52.110;5.548;2023-08-07T13:59:27;5.22;;;2.00;;
24084;SDS011;12268;52.110;5.548;2023-08-07T14:01:53;5.13;;;1.85;;
24084;SDS011;12268;52.110;5.548;2023-08-07T14:04:19;5.70;;;2.00;;
24084;SDS011;12268;52.110;5.548;2023-08-07T14:06:45;6.70;;;2.10;;
24084;SDS011;12268;52.110;5.548;2023-08-07T14:09:11;9.13;;;2.05;;
24084;SDS011;12268;52.110;5.548;2023-08-07T14:11:37;7.13;;;2.17;;
24084;SDS011;12268;52.110;5.548;2023-08-07T14:14:03;6.45;;;1.90;;
24084;SDS011;12268;52.110;5.548;2023-08-07T14:16:28;4.45;;;1.90;;
24084;SDS011;12268;52.110;5.548;2023-08-07T14:18:54;4.40;;;1.80;;
24084;SDS011;12268;52.110;5.548;2023-08-07T14:21:20;5.68;;;1.63;;
24084;SDS011;12268;52.110;5.548;2023-08-07T14:23:45;6.57;;;2.00;;
24084;SDS011;12268;52.110;5.548;2023-08-07T14:26:12;5.88;;;1.90;;
24084;SDS011;12268;52.110;5.548;2023-08-07T14:28:38;7.18;;;1.70;;
24084;SDS011;12268;52.110;5.548;2023-08-07T14:31:07;6.25;;;1.83;;
24084;SDS011;12268;52.110;5.548;2023-08-07T16:43:02;9.20;;;2.78;;
24084;SDS011;12268;52.110;5.548;2023-08-07T16:45:28;6.25;;;2.30;;
24084;SDS011;12268;52.110;5.548;2023-08-07T16:47:55;8.10;;;2.85;;
24084;SDS011;12268;52.110;5.548;2023-08-07T16:50:21;7.53;;;2.83;;
24084;SDS011;12268;52.110;5.548;2023-08-07T16:52:48;8.13;;;2.67;;
24084;SDS011;12268;52.110;5.548;2023-08-07T16:55:14;9.77;;;3.40;;
24084;SDS011;12268;52.110;5.548;2023-08-07T16:57:40;10.82;;;2.80;;
24084;SDS011;12268;52.110;5.548;2023-08-07T17:00:05;7.05;;;2.88;;
24084;SDS011;12268;52.110;5.548;2023-08-07T17:02:31;6.15;;;2.70;;
24084;SDS011;12268;52.110;5.548;2023-08-07T17:04:57;4.57;;;2.63;;
24084;SDS011;12268;52.110;5.548;2023-08-07T17:07:23;5.88;;;2.67;;
24084;SDS011;12268;52.110;5.548;2023-08-07T17:09:48;6.90;;;2.40;;
24084;SDS011;12268;52.110;5.548;2023-08-07T17:12:14;6.13;;;2.65;;
24084;SDS011;12268;52.110;5.548;2023-08-07T17:14:39;6.60;;;2.75;;
24084;SDS011;12268;52.110;5.548;2023-08-07T17:17:05;6.22;;;2.80;;
24084;SDS011;12268;52.110;5.548;2023-08-07T17:19:30;4.93;;;2.53;;
24084;SDS011;12268;52.110;5.548;2023-08-07T17:21:56;7.82;;;2.70;;
24084;SDS011;12268;52.110;5.548;2023-08-07T17:24:21;4.97;;;2.70;;
24084;SDS011;12268;52.110;5.548;2023-08-07T17:26:47;4.70;;;2.40;;
24084;SDS011;12268;52.110;5.548;2023-08-07T17:29:12;6.38;;;2.72;;
24084;SDS011;12268;52.110;5.548;2023-08-07T17:31:38;5.00;;;2.50;;
24084;SDS011;12268;52.110;5.548;2023-08-07T17:34:03;5.15;;;2.60;;
24084;SDS011;12268;52.110;5.548;2023-08-07T17:36:29;7.75;;;2.83;;
24084;SDS011;12268;52.110;5.548;2023-08-07T17:38:55;4.20;;;2.67;;
24084;SDS011;12268;52.110;5.548;2023-08-07T17:41:20;8.63;;;3.05;;
24084;SDS011;12268;52.110;5.548;2023-08-07T17:43:46;4.93;;;2.90;;
24084;SDS011;12268;52.110;5.548;2023-08-07T17:46:12;6.43;;;3.05;;
24084;SDS011;12268;52.110;5.548;2023-08-07T17:48:38;5.35;;;3.20;;
24084;SDS011;12268;52.110;5.548;2023-08-07T17:51:04;7.80;;;3.47;;
24084;SDS011;12268;52.110;5.548;2023-08-07T17:53:29;5.40;;;3.28;;
24084;SDS011;12268;52.110;5.548;2023-08-07T17:55:55;7.38;;;3.83;;
24084;SDS011;12268;52.110;5.548;2023-08-07T17:58:20;12.57;;;4.13;;
24084;SDS011;12268;52.110;5.548;2023-08-07T18:00:46;9.88;;;3.58;;
24084;SDS011;12268;52.110;5.548;2023-08-07T18:03:12;6.88;;;4.10;;
24084;SDS011;12268;52.110;5.548;2023-08-07T18:05:39;6.43;;;3.70;;
24084;SDS011;12268;52.110;5.548;2023-08-07T18:08:05;7.45;;;4.43;;
24084;SDS011;12268;52.110;5.548;2023-08-07T18:10:31;7.55;;;3.85;;
24084;SDS011;12268;52.110;5.548;2023-08-07T18:12:57;7.50;;;4.00;;
24084;SDS011;12268;52.110;5.548;2023-08-07T18:15:22;4.88;;;3.92;;
24084;SDS011;12268;52.110;5.548;2023-08-07T18:17:48;8.23;;;3.65;;
24084;SDS011;12268;52.110;5.548;2023-08-07T18:20:13;4.63;;;2.97;;
24084;SDS011;12268;52.110;5.548;2023-08-07T18:22:39;8.82;;;3.45;;
24084;SDS011;12268;52.110;5.548;2023-08-07T18:25:05;7.43;;;3.28;;
24084;SDS011;12268;52.110;5.548;2023-08-07T18:27:30;6.03;;;3.90;;
24084;SDS011;12268;52.110;5.548;2023-08-07T18:29:56;4.97;;;3.10;;
24084;SDS011;12268;52.110;5.548;2023-08-07T18:32:22;6.13;;;3.53;;
24084;SDS011;12268;52.110;5.548;2023-08-07T18:34:47;7.88;;;3.72;;
24084;SDS011;12268;52.110;5.548;2023-08-07T18:37:13;5.72;;;3.33;;
24084;SDS011;12268;52.110;5.548;2023-08-07T18:39:38;4.93;;;2.80;;
24084;SDS011;12268;52.110;5.548;2023-08-07T18:42:04;8.15;;;3.08;;
24084;SDS011;12268;52.110;5.548;2023-08-07T18:44:30;4.60;;;2.90;;